VOZ931 YANG-YBRM
Flight info
| Callsign | VOZ931 |
|---|---|
| Flight time | 1h 11m |
| Altitude | 35000 |
| Route | ASEBU Y31 BRM |
| Aircraft | A320/M-SDE3FGHIRWY/LB1 |
Departure
| Time | 2026-05-06 01:10 |
|---|---|
| Airport | West Angelas Airport (YANG) |
Arrival
| Time | 2026-05-06 02:22 |
|---|---|
| Airport | Broome International Airport (YBRM) |
| Time | Latitude | Longitude | Altitude | Speed | Heading |
|---|---|---|---|---|---|
| 2026-05-06 00:33 | -23.13663 | 118.70449 | 2307 ft | 0 kts | 335° |
| 2026-05-06 01:04 | -23.13653 | 118.70448 | 2315 ft | 4 kts | 355° |
| 2026-05-06 01:05 | -23.13639 | 118.70473 | 2312 ft | 5 kts | 105° |
| 2026-05-06 01:05 | -23.13674 | 118.70494 | 2311 ft | 7 kts | 143° |
| 2026-05-06 01:05 | -23.13703 | 118.70531 | 2310 ft | 4 kts | 129° |
| 2026-05-06 01:05 | -23.13733 | 118.70569 | 2302 ft | 9 kts | 125° |
| 2026-05-06 01:06 | -23.13709 | 118.70627 | 2302 ft | 10 kts | 44° |
| 2026-05-06 01:06 | -23.13653 | 118.70684 | 2312 ft | 12 kts | 44° |
| 2026-05-06 01:06 | -23.13588 | 118.70756 | 2308 ft | 15 kts | 45° |
| 2026-05-06 01:06 | -23.13508 | 118.70844 | 2305 ft | 18 kts | 46° |
| 2026-05-06 01:07 | -23.13418 | 118.70945 | 2309 ft | 19 kts | 45° |
| 2026-05-06 01:07 | -23.13318 | 118.71055 | 2302 ft | 21 kts | 46° |
| 2026-05-06 01:07 | -23.13213 | 118.71171 | 2309 ft | 22 kts | 45° |
| 2026-05-06 01:07 | -23.13106 | 118.71286 | 2307 ft | 19 kts | 44° |
| 2026-05-06 01:08 | -23.13059 | 118.71334 | 2305 ft | 1 kts | 62° |
| 2026-05-06 01:08 | -23.13074 | 118.71339 | 2304 ft | 3 kts | 204° |
| 2026-05-06 01:08 | -23.13089 | 118.71306 | 2304 ft | 6 kts | 245° |
| 2026-05-06 01:08 | -23.13111 | 118.71279 | 2311 ft | 0 kts | 224° |
| 2026-05-06 01:10 | -23.13115 | 118.71275 | 2302 ft | 9 kts | 224° |
| 2026-05-06 01:10 | -23.13378 | 118.70988 | 2301 ft | 100 kts | 225° |
| 2026-05-06 01:10 | -23.14025 | 118.70281 | 2308 ft | 170 kts | 224° |
| 2026-05-06 01:10 | -23.14860 | 118.69338 | 3044 ft | 169 kts | 221° |
| 2026-05-06 01:11 | -23.15711 | 118.68390 | 3751 ft | 182 kts | 217° |
| 2026-05-06 01:11 | -23.16656 | 118.67413 | 4496 ft | 193 kts | 216° |
| 2026-05-06 01:11 | -23.17716 | 118.66499 | 5116 ft | 196 kts | 198° |
| 2026-05-06 01:11 | -23.19059 | 118.66335 | 5343 ft | 203 kts | 161° |
| 2026-05-06 01:12 | -23.20354 | 118.67040 | 5448 ft | 220 kts | 132° |
| 2026-05-06 01:12 | -23.21197 | 118.68490 | 5673 ft | 239 kts | 99° |
| 2026-05-06 01:12 | -23.21042 | 118.70327 | 6126 ft | 259 kts | 66° |
| 2026-05-06 01:12 | -23.19925 | 118.71908 | 6856 ft | 271 kts | 46° |
| 2026-05-06 01:13 | -23.18437 | 118.73211 | 7724 ft | 274 kts | 39° |
| 2026-05-06 01:13 | -23.16938 | 118.74490 | 8658 ft | 275 kts | 43° |
| 2026-05-06 01:13 | -23.15473 | 118.75863 | 9454 ft | 281 kts | 43° |
| 2026-05-06 01:13 | -23.14014 | 118.77318 | 10187 ft | 289 kts | 45° |
| 2026-05-06 01:14 | -23.11048 | 118.80399 | 11584 ft | 300 kts | 46° |
| 2026-05-06 01:14 | -23.09534 | 118.81988 | 12316 ft | 305 kts | 45° |
| 2026-05-06 01:14 | -23.07995 | 118.83602 | 13022 ft | 311 kts | 45° |
| 2026-05-06 01:15 | -23.06424 | 118.85244 | 13698 ft | 316 kts | 45° |
| 2026-05-06 01:15 | -23.04827 | 118.86911 | 14360 ft | 321 kts | 45° |
| 2026-05-06 01:15 | -23.03203 | 118.88606 | 14999 ft | 325 kts | 44° |
| 2026-05-06 01:15 | -23.01557 | 118.90322 | 15601 ft | 331 kts | 44° |
| 2026-05-06 01:16 | -22.99886 | 118.92059 | 16246 ft | 334 kts | 44° |
| 2026-05-06 01:16 | -22.98191 | 118.93816 | 16851 ft | 340 kts | 43° |
| 2026-05-06 01:16 | -22.96474 | 118.95600 | 17495 ft | 344 kts | 43° |
| 2026-05-06 01:16 | -22.94736 | 118.97411 | 18085 ft | 349 kts | 43° |
| 2026-05-06 01:17 | -22.92978 | 118.99241 | 18712 ft | 352 kts | 43° |
| 2026-05-06 01:17 | -22.91198 | 119.01090 | 19258 ft | 356 kts | 43° |
| 2026-05-06 01:17 | -22.89401 | 119.02950 | 19826 ft | 359 kts | 43° |
| 2026-05-06 01:17 | -22.87584 | 119.04833 | 20337 ft | 366 kts | 43° |
| 2026-05-06 01:18 | -22.85697 | 119.06788 | 20439 ft | 384 kts | 43° |
| 2026-05-06 01:18 | -22.83750 | 119.08807 | 20582 ft | 401 kts | 43° |
| 2026-05-06 01:18 | -22.81680 | 119.10950 | 20911 ft | 410 kts | 43° |
| 2026-05-06 01:18 | -22.79602 | 119.13098 | 21389 ft | 415 kts | 43° |
| 2026-05-06 01:19 | -22.77534 | 119.15238 | 21932 ft | 418 kts | 43° |
| 2026-05-06 01:19 | -22.75420 | 119.17428 | 22460 ft | 422 kts | 43° |
| 2026-05-06 01:19 | -22.73288 | 119.19633 | 22985 ft | 426 kts | 43° |
| 2026-05-06 01:19 | -22.71136 | 119.21858 | 23498 ft | 430 kts | 43° |
| 2026-05-06 01:20 | -22.68962 | 119.24109 | 23944 ft | 434 kts | 43° |
| 2026-05-06 01:20 | -22.66773 | 119.26375 | 24361 ft | 437 kts | 43° |
| 2026-05-06 01:20 | -22.64567 | 119.28654 | 24794 ft | 440 kts | 43° |
| 2026-05-06 01:20 | -22.62342 | 119.30952 | 25196 ft | 443 kts | 42° |
| 2026-05-06 01:21 | -22.60101 | 119.33264 | 25578 ft | 447 kts | 42° |
| 2026-05-06 01:21 | -22.57841 | 119.35599 | 25937 ft | 451 kts | 42° |
| 2026-05-06 01:21 | -22.55559 | 119.37952 | 26292 ft | 455 kts | 41° |
| 2026-05-06 01:21 | -22.53253 | 119.40323 | 26644 ft | 459 kts | 41° |
| 2026-05-06 01:22 | -22.50923 | 119.42712 | 26994 ft | 463 kts | 41° |
| 2026-05-06 01:22 | -22.48579 | 119.45119 | 27326 ft | 467 kts | 41° |
| 2026-05-06 01:22 | -22.46214 | 119.47550 | 27660 ft | 471 kts | 41° |
| 2026-05-06 01:22 | -22.43826 | 119.50005 | 27988 ft | 475 kts | 41° |
| 2026-05-06 01:23 | -22.41423 | 119.52475 | 28323 ft | 479 kts | 40° |
| 2026-05-06 01:23 | -22.38997 | 119.54968 | 28652 ft | 483 kts | 40° |
| 2026-05-06 01:23 | -22.36554 | 119.57477 | 28955 ft | 487 kts | 40° |
| 2026-05-06 01:23 | -22.34086 | 119.60006 | 29241 ft | 492 kts | 39° |
| 2026-05-06 01:24 | -22.31593 | 119.62559 | 29554 ft | 496 kts | 39° |
| 2026-05-06 01:24 | -22.29080 | 119.65132 | 29859 ft | 500 kts | 39° |
| 2026-05-06 01:24 | -22.26546 | 119.67727 | 30178 ft | 504 kts | 39° |
| 2026-05-06 01:24 | -22.23998 | 119.70339 | 30448 ft | 507 kts | 39° |
| 2026-05-06 01:25 | -22.21430 | 119.72971 | 30701 ft | 511 kts | 39° |
| 2026-05-06 01:25 | -22.18847 | 119.75618 | 30961 ft | 514 kts | 39° |
| 2026-05-06 01:25 | -22.16247 | 119.78278 | 31210 ft | 517 kts | 39° |
| 2026-05-06 01:25 | -22.13623 | 119.80955 | 31469 ft | 520 kts | 39° |
| 2026-05-06 01:26 | -22.10991 | 119.83635 | 31821 ft | 521 kts | 38° |
| 2026-05-06 01:26 | -22.08355 | 119.86321 | 32158 ft | 522 kts | 38° |
| 2026-05-06 01:26 | -22.05716 | 119.89010 | 32493 ft | 523 kts | 38° |
| 2026-05-06 01:26 | -22.03067 | 119.91715 | 32822 ft | 524 kts | 38° |
| 2026-05-06 01:27 | -22.00417 | 119.94420 | 33119 ft | 526 kts | 38° |
| 2026-05-06 01:27 | -21.97749 | 119.97134 | 33383 ft | 529 kts | 37° |
| 2026-05-06 01:27 | -21.95069 | 119.99860 | 33683 ft | 531 kts | 37° |
| 2026-05-06 01:27 | -21.92384 | 120.02592 | 34017 ft | 532 kts | 37° |
| 2026-05-06 01:28 | -21.89693 | 120.05328 | 34319 ft | 533 kts | 37° |
| 2026-05-06 01:28 | -21.86992 | 120.08074 | 34593 ft | 534 kts | 37° |
| 2026-05-06 01:28 | -21.84288 | 120.10816 | 34881 ft | 535 kts | 37° |
| 2026-05-06 01:28 | -21.81577 | 120.13564 | 35094 ft | 536 kts | 37° |
| 2026-05-06 01:29 | -21.76175 | 120.19047 | 35151 ft | 533 kts | 37° |
| 2026-05-06 01:29 | -21.70787 | 120.24510 | 35150 ft | 532 kts | 37° |
| 2026-05-06 01:30 | -21.65407 | 120.29959 | 35146 ft | 532 kts | 37° |
| 2026-05-06 01:30 | -21.60016 | 120.35408 | 35144 ft | 532 kts | 37° |
| 2026-05-06 01:31 | -21.54628 | 120.40851 | 35135 ft | 532 kts | 37° |
| 2026-05-06 01:31 | -21.49234 | 120.46284 | 35147 ft | 531 kts | 37° |
| 2026-05-06 01:32 | -21.43838 | 120.51713 | 35143 ft | 531 kts | 37° |
| 2026-05-06 01:32 | -21.39353 | 120.56217 | 35145 ft | 531 kts | 37° |
| 2026-05-06 01:33 | -21.33964 | 120.61642 | 35143 ft | 531 kts | 37° |
| 2026-05-06 01:33 | -21.28574 | 120.67068 | 35108 ft | 531 kts | 37° |
| 2026-05-06 01:34 | -21.23177 | 120.72486 | 35110 ft | 532 kts | 37° |
| 2026-05-06 01:34 | -21.17766 | 120.77898 | 35111 ft | 532 kts | 37° |
| 2026-05-06 01:35 | -21.12352 | 120.83313 | 35110 ft | 532 kts | 37° |
| 2026-05-06 01:35 | -21.06939 | 120.88731 | 35113 ft | 533 kts | 37° |
| 2026-05-06 01:36 | -21.01521 | 120.94146 | 35113 ft | 533 kts | 37° |
| 2026-05-06 01:36 | -20.96104 | 120.99558 | 35112 ft | 533 kts | 37° |
| 2026-05-06 01:37 | -20.90680 | 121.04966 | 35087 ft | 533 kts | 37° |
| 2026-05-06 01:37 | -20.85253 | 121.10371 | 35088 ft | 533 kts | 37° |
| 2026-05-06 01:38 | -20.79821 | 121.15775 | 35094 ft | 534 kts | 37° |
| 2026-05-06 01:38 | -20.74381 | 121.21179 | 35100 ft | 534 kts | 37° |
| 2026-05-06 01:39 | -20.68944 | 121.26589 | 35094 ft | 534 kts | 37° |
| 2026-05-06 01:39 | -20.63509 | 121.31982 | 35097 ft | 533 kts | 37° |
| 2026-05-06 01:40 | -20.58066 | 121.37361 | 35066 ft | 533 kts | 37° |
| 2026-05-06 01:40 | -20.52630 | 121.42744 | 35071 ft | 533 kts | 37° |
| 2026-05-06 01:41 | -20.47227 | 121.48092 | 35078 ft | 533 kts | 37° |
| 2026-05-06 01:41 | -20.41785 | 121.53472 | 35066 ft | 534 kts | 37° |
| 2026-05-06 01:42 | -20.36343 | 121.58853 | 35080 ft | 533 kts | 37° |
| 2026-05-06 01:42 | -20.30901 | 121.64222 | 35081 ft | 533 kts | 37° |
| 2026-05-06 01:43 | -20.25453 | 121.69566 | 35073 ft | 532 kts | 37° |
| 2026-05-06 01:43 | -20.20014 | 121.74917 | 35043 ft | 532 kts | 37° |
| 2026-05-06 01:44 | -20.14499 | 121.80141 | 35059 ft | 526 kts | 29° |
| 2026-05-06 01:44 | -20.08259 | 121.83870 | 35064 ft | 506 kts | 13° |
| 2026-05-06 01:45 | -20.01737 | 121.86708 | 35057 ft | 506 kts | 13° |
| 2026-05-06 01:45 | -19.95217 | 121.89561 | 35058 ft | 506 kts | 13° |
| 2026-05-06 01:46 | -19.88712 | 121.92411 | 35024 ft | 506 kts | 13° |
| 2026-05-06 01:46 | -19.82202 | 121.95263 | 35032 ft | 506 kts | 13° |
| 2026-05-06 01:47 | -19.75693 | 121.98112 | 35033 ft | 506 kts | 13° |
| 2026-05-06 01:47 | -19.69189 | 122.00943 | 35033 ft | 505 kts | 13° |
| 2026-05-06 01:48 | -19.62676 | 122.03771 | 35039 ft | 505 kts | 13° |
| 2026-05-06 01:48 | -19.56168 | 122.06599 | 34997 ft | 506 kts | 13° |
| 2026-05-06 01:49 | -19.49636 | 122.09435 | 34664 ft | 508 kts | 14° |
| 2026-05-06 01:49 | -19.46211 | 122.10920 | 33141 ft | 516 kts | 14° |
| 2026-05-06 01:49 | -19.42892 | 122.12360 | 31976 ft | 512 kts | 14° |
| 2026-05-06 01:50 | -19.39627 | 122.13786 | 31122 ft | 501 kts | 14° |
| 2026-05-06 01:50 | -19.36452 | 122.15182 | 30595 ft | 486 kts | 14° |
| 2026-05-06 01:50 | -19.33343 | 122.16547 | 30047 ft | 482 kts | 13° |
| 2026-05-06 01:50 | -19.30254 | 122.17888 | 29409 ft | 478 kts | 13° |
| 2026-05-06 01:51 | -19.27190 | 122.19210 | 28833 ft | 473 kts | 13° |
| 2026-05-06 01:51 | -19.24160 | 122.20515 | 28303 ft | 467 kts | 14° |
| 2026-05-06 01:51 | -19.21164 | 122.21809 | 27762 ft | 463 kts | 14° |
| 2026-05-06 01:51 | -19.18196 | 122.23095 | 27224 ft | 459 kts | 14° |
| 2026-05-06 01:52 | -19.15261 | 122.24368 | 26717 ft | 454 kts | 14° |
| 2026-05-06 01:52 | -19.12351 | 122.25631 | 26213 ft | 450 kts | 14° |
| 2026-05-06 01:52 | -19.09464 | 122.26878 | 25724 ft | 446 kts | 14° |
| 2026-05-06 01:52 | -19.06603 | 122.28109 | 25235 ft | 442 kts | 14° |
| 2026-05-06 01:53 | -19.03764 | 122.29330 | 24755 ft | 439 kts | 14° |
| 2026-05-06 01:53 | -19.00940 | 122.30546 | 24274 ft | 437 kts | 14° |
| 2026-05-06 01:53 | -18.98116 | 122.31679 | 23771 ft | 429 kts | 8° |
| 2026-05-06 01:53 | -18.95244 | 122.32252 | 23296 ft | 413 kts | 356° |
| 2026-05-06 01:54 | -18.92462 | 122.32211 | 22839 ft | 398 kts | 345° |
| 2026-05-06 01:54 | -18.89761 | 122.31610 | 22321 ft | 386 kts | 335° |
| 2026-05-06 01:54 | -18.87266 | 122.30729 | 21885 ft | 382 kts | 334° |
| 2026-05-06 01:54 | -18.84757 | 122.29850 | 21440 ft | 379 kts | 335° |
| 2026-05-06 01:55 | -18.82263 | 122.28983 | 20983 ft | 375 kts | 335° |
| 2026-05-06 01:55 | -18.79794 | 122.28126 | 20525 ft | 372 kts | 335° |
| 2026-05-06 01:55 | -18.77342 | 122.27277 | 20071 ft | 369 kts | 335° |
| 2026-05-06 01:55 | -18.74910 | 122.26435 | 19614 ft | 366 kts | 336° |
| 2026-05-06 01:56 | -18.72500 | 122.25599 | 19164 ft | 363 kts | 336° |
| 2026-05-06 01:56 | -18.70108 | 122.24768 | 18706 ft | 361 kts | 336° |
| 2026-05-06 01:56 | -18.67732 | 122.23942 | 18242 ft | 358 kts | 336° |
| 2026-05-06 01:56 | -18.65375 | 122.23126 | 17753 ft | 355 kts | 337° |
| 2026-05-06 01:57 | -18.63043 | 122.22318 | 17307 ft | 351 kts | 337° |
| 2026-05-06 01:57 | -18.60733 | 122.21519 | 16860 ft | 348 kts | 337° |
| 2026-05-06 01:57 | -18.58445 | 122.20726 | 16419 ft | 344 kts | 337° |
| 2026-05-06 01:57 | -18.56180 | 122.19939 | 15977 ft | 342 kts | 338° |
| 2026-05-06 01:58 | -18.53931 | 122.19157 | 15535 ft | 339 kts | 338° |
| 2026-05-06 01:58 | -18.51698 | 122.18379 | 15096 ft | 337 kts | 338° |
| 2026-05-06 01:58 | -18.49476 | 122.17602 | 14657 ft | 335 kts | 338° |
| 2026-05-06 01:58 | -18.47266 | 122.16830 | 14219 ft | 334 kts | 339° |
| 2026-05-06 01:59 | -18.45065 | 122.16068 | 13776 ft | 332 kts | 339° |
| 2026-05-06 01:59 | -18.42873 | 122.15311 | 13308 ft | 330 kts | 339° |
| 2026-05-06 01:59 | -18.40701 | 122.14560 | 12873 ft | 328 kts | 339° |
| 2026-05-06 01:59 | -18.38543 | 122.13815 | 12443 ft | 325 kts | 339° |
| 2026-05-06 02:00 | -18.36403 | 122.13076 | 12009 ft | 323 kts | 339° |
| 2026-05-06 02:00 | -18.34276 | 122.12340 | 11591 ft | 321 kts | 339° |
| 2026-05-06 02:00 | -18.32163 | 122.11609 | 11170 ft | 319 kts | 340° |
| 2026-05-06 02:00 | -18.30061 | 122.10881 | 10750 ft | 318 kts | 340° |
| 2026-05-06 02:01 | -18.27962 | 122.10153 | 10329 ft | 317 kts | 340° |
| 2026-05-06 02:01 | -18.25916 | 122.09446 | 10118 ft | 308 kts | 340° |
| 2026-05-06 02:01 | -18.23916 | 122.08754 | 9983 ft | 298 kts | 340° |
| 2026-05-06 02:01 | -18.21981 | 122.08082 | 9856 ft | 288 kts | 340° |
| 2026-05-06 02:02 | -18.20112 | 122.07433 | 9737 ft | 278 kts | 340° |
| 2026-05-06 02:02 | -18.18318 | 122.06816 | 9589 ft | 262 kts | 340° |
| 2026-05-06 02:02 | -18.16646 | 122.06243 | 9434 ft | 245 kts | 340° |
| 2026-05-06 02:02 | -18.15052 | 122.05695 | 9055 ft | 238 kts | 340° |
| 2026-05-06 02:03 | -18.13489 | 122.05155 | 8585 ft | 235 kts | 340° |
| 2026-05-06 02:03 | -18.11946 | 122.04621 | 8114 ft | 233 kts | 340° |
| 2026-05-06 02:03 | -18.10415 | 122.04092 | 7642 ft | 231 kts | 340° |
| 2026-05-06 02:03 | -18.08897 | 122.03566 | 7171 ft | 229 kts | 340° |
| 2026-05-06 02:04 | -18.07392 | 122.03046 | 6716 ft | 227 kts | 340° |
| 2026-05-06 02:04 | -18.05900 | 122.02534 | 6246 ft | 225 kts | 340° |
| 2026-05-06 02:04 | -18.04421 | 122.02024 | 5756 ft | 223 kts | 341° |
| 2026-05-06 02:04 | -18.02957 | 122.01516 | 5368 ft | 220 kts | 341° |
| 2026-05-06 02:05 | -18.01496 | 122.01007 | 5184 ft | 221 kts | 341° |
| 2026-05-06 02:05 | -18.00031 | 122.00498 | 5064 ft | 223 kts | 341° |
| 2026-05-06 02:05 | -17.98555 | 121.99996 | 4952 ft | 223 kts | 345° |
| 2026-05-06 02:05 | -17.97023 | 121.99874 | 4850 ft | 223 kts | 6° |
| 2026-05-06 02:06 | -17.95545 | 122.00368 | 4594 ft | 226 kts | 28° |
| 2026-05-06 02:06 | -17.94251 | 122.01313 | 4275 ft | 227 kts | 34° |
| 2026-05-06 02:06 | -17.92971 | 122.02275 | 3966 ft | 226 kts | 34° |
| 2026-05-06 02:06 | -17.91692 | 122.03230 | 3662 ft | 225 kts | 34° |
| 2026-05-06 02:07 | -17.90628 | 122.04410 | 3356 ft | 226 kts | 63° |
| 2026-05-06 02:07 | -17.90419 | 122.06021 | 3060 ft | 227 kts | 99° |
| 2026-05-06 02:07 | -17.90835 | 122.07617 | 2769 ft | 226 kts | 103° |
| 2026-05-06 02:07 | -17.91267 | 122.09202 | 2476 ft | 226 kts | 103° |
| 2026-05-06 02:08 | -17.91694 | 122.10784 | 2182 ft | 224 kts | 103° |
| 2026-05-06 02:08 | -17.92104 | 122.12309 | 1905 ft | 211 kts | 103° |
| 2026-05-06 02:08 | -17.92487 | 122.13737 | 1655 ft | 196 kts | 102° |
| 2026-05-06 02:08 | -17.92833 | 122.15029 | 1393 ft | 173 kts | 103° |
| 2026-05-06 02:09 | -17.93143 | 122.16181 | 1159 ft | 154 kts | 102° |
| 2026-05-06 02:09 | -17.93420 | 122.17230 | 964 ft | 146 kts | 102° |
| 2026-05-06 02:09 | -17.93686 | 122.18243 | 785 ft | 142 kts | 103° |
| 2026-05-06 02:09 | -17.93949 | 122.19220 | 652 ft | 140 kts | 103° |
| 2026-05-06 02:10 | -17.94209 | 122.20222 | 405 ft | 141 kts | 104° |
| 2026-05-06 02:10 | -17.94468 | 122.21186 | 215 ft | 138 kts | 104° |
| 2026-05-06 02:10 | -17.94722 | 122.22146 | 64 ft | 127 kts | 105° |
| 2026-05-06 02:10 | -17.94957 | 122.22988 | 189 ft | 127 kts | 104° |
| 2026-05-06 02:11 | -17.95189 | 122.23950 | 772 ft | 144 kts | 102° |
| 2026-05-06 02:11 | -17.95454 | 122.24988 | 1361 ft | 148 kts | 103° |
| 2026-05-06 02:11 | -17.95737 | 122.26024 | 1826 ft | 145 kts | 101° |
| 2026-05-06 02:11 | -17.96034 | 122.27093 | 2145 ft | 162 kts | 102° |
| 2026-05-06 02:12 | -17.96514 | 122.28257 | 2422 ft | 189 kts | 128° |
| 2026-05-06 02:12 | -17.97696 | 122.29024 | 2718 ft | 217 kts | 166° |
| 2026-05-06 02:12 | -17.98736 | 122.29070 | 2957 ft | 228 kts | 189° |
| 2026-05-06 02:12 | -18.00171 | 122.28411 | 3001 ft | 226 kts | 223° |
| 2026-05-06 02:13 | -18.01002 | 122.27081 | 3008 ft | 221 kts | 256° |
| 2026-05-06 02:13 | -18.01293 | 122.25502 | 3011 ft | 220 kts | 265° |
| 2026-05-06 02:13 | -18.01340 | 122.23905 | 3007 ft | 219 kts | 279° |
| 2026-05-06 02:13 | -18.01066 | 122.22334 | 3012 ft | 225 kts | 283° |
| 2026-05-06 02:14 | -18.00761 | 122.20675 | 3008 ft | 235 kts | 283° |
| 2026-05-06 02:14 | -18.00453 | 122.18982 | 3009 ft | 237 kts | 283° |
| 2026-05-06 02:14 | -18.00145 | 122.17286 | 3009 ft | 236 kts | 283° |
| 2026-05-06 02:14 | -17.99836 | 122.15593 | 3009 ft | 236 kts | 283° |
| 2026-05-06 02:15 | -17.99526 | 122.13900 | 3008 ft | 236 kts | 284° |
| 2026-05-06 02:15 | -17.99212 | 122.12208 | 3009 ft | 236 kts | 283° |
| 2026-05-06 02:15 | -17.98897 | 122.10518 | 3009 ft | 236 kts | 284° |
| 2026-05-06 02:15 | -17.98579 | 122.08825 | 3008 ft | 235 kts | 283° |
| 2026-05-06 02:16 | -17.98265 | 122.07141 | 3013 ft | 235 kts | 283° |
| 2026-05-06 02:16 | -17.97950 | 122.05449 | 3010 ft | 237 kts | 284° |
| 2026-05-06 02:16 | -17.97609 | 122.03761 | 3006 ft | 235 kts | 291° |
| 2026-05-06 02:16 | -17.96746 | 122.02355 | 3009 ft | 229 kts | 322° |
| 2026-05-06 02:17 | -17.95357 | 122.01641 | 3010 ft | 218 kts | 352° |
| 2026-05-06 02:17 | -17.93877 | 122.01753 | 3008 ft | 215 kts | 20° |
| 2026-05-06 02:17 | -17.92660 | 122.02501 | 3016 ft | 216 kts | 35° |
| 2026-05-06 02:18 | -17.92343 | 122.02743 | 3019 ft | 216 kts | 35° |
| 2026-05-06 02:18 | -17.91192 | 122.03748 | 3007 ft | 217 kts | 50° |
| 2026-05-06 02:18 | -17.90539 | 122.05168 | 2992 ft | 221 kts | 77° |
| 2026-05-06 02:18 | -17.90597 | 122.06785 | 2713 ft | 224 kts | 103° |
| 2026-05-06 02:19 | -17.91028 | 122.08345 | 2474 ft | 221 kts | 104° |
| 2026-05-06 02:19 | -17.91447 | 122.09878 | 2244 ft | 214 kts | 103° |
| 2026-05-06 02:19 | -17.91845 | 122.11347 | 2044 ft | 201 kts | 103° |
| 2026-05-06 02:19 | -17.92210 | 122.12703 | 1812 ft | 186 kts | 102° |
| 2026-05-06 02:20 | -17.92849 | 122.15075 | 1377 ft | 153 kts | 102° |
| 2026-05-06 02:20 | -17.93130 | 122.16127 | 1172 ft | 147 kts | 102° |
| 2026-05-06 02:20 | -17.93400 | 122.17148 | 981 ft | 144 kts | 103° |
| 2026-05-06 02:21 | -17.93665 | 122.18153 | 793 ft | 141 kts | 104° |
| 2026-05-06 02:21 | -17.93922 | 122.19144 | 612 ft | 140 kts | 105° |
| 2026-05-06 02:21 | -17.94180 | 122.20136 | 399 ft | 142 kts | 107° |
| 2026-05-06 02:21 | -17.94449 | 122.21128 | 214 ft | 141 kts | 107° |
| 2026-05-06 02:22 | -17.94703 | 122.22104 | 59 ft | 130 kts | 107° |
| 2026-05-06 02:22 | -17.94893 | 122.22797 | 52 ft | 55 kts | 105° |
| 2026-05-06 02:22 | -17.94940 | 122.22976 | 45 ft | 21 kts | 105° |
| 2026-05-06 02:22 | -17.94994 | 122.23179 | 39 ft | 30 kts | 105° |
| 2026-05-06 02:23 | -17.95032 | 122.23332 | 36 ft | 15 kts | 106° |
| 2026-05-06 02:23 | -17.95092 | 122.23387 | 36 ft | 6 kts | 183° |
| 2026-05-06 02:23 | -17.95118 | 122.23380 | 37 ft | 1 kts | 197° |
| 2026-05-06 02:23 | -17.95129 | 122.23376 | 37 ft | 2 kts | 197° |
| 2026-05-06 02:24 | -17.95139 | 122.23373 | 37 ft | 2 kts | 197° |
| 2026-05-06 02:24 | -17.95162 | 122.23364 | 37 ft | 5 kts | 206° |
| 2026-05-06 02:24 | -17.95185 | 122.23328 | 37 ft | 7 kts | 244° |
| 2026-05-06 02:24 | -17.95209 | 122.23300 | 37 ft | 6 kts | 207° |
| 2026-05-06 02:25 | -17.95233 | 122.23304 | 37 ft | 3 kts | 127° |
| 2026-05-06 02:25 | -17.95228 | 122.23324 | 35 ft | 4 kts | 60° |
| 2026-05-06 02:25 | -17.95218 | 122.23342 | 37 ft | 2 kts | 64° |
| 2026-05-06 02:25 | -17.95217 | 122.23344 | 37 ft | 0 kts | 64° |